Terminal Aerodrome Forecast
Issued by NWS Wakefield, VA

Home | Current Version | Previous Version | Text Only | Print | Product List | Glossary On
Versions: 1 2 3 4 5 6 7 8 9 10 11 12
000
FTUS41 KAKQ 231700
TAFRIC
TAF
KRIC 231737Z 2318/2418 19005KT P6SM BKN150
     FM232300 14005KT P6SM -RA SCT024 BKN080
     FM240200 12006KT 4SM -RA BR SCT008 BKN025
     FM240400 13008KT 2SM -RA BR BKN008
     FM240900 19010KT P6SM SCT008 BKN012
     FM241500 19014G21KT P6SM BKN025=

USA.gov is the U.S. government's official web portal to all federal, state and local government web resources and services.